首页
METAR-TAF:

METAR-TAF

机场 :

切图马尔, 墨西哥

纬度: 18-29N, 经度: 088-18W, 海拔: 9米

当前天气观测

该预报发布于29分钟前的11:48 UTC
风速9节,风向
温度 20°C
湿度 88%
气压 1019 hPa
能見度: 11.3公里
多云层高于1500英尺, 塔状积云.

METAR: MMCM 271148Z 36009KT 7SM BKN015TCU 20/18 A3010 RMK SLP194 5//// 949 8/200 HZY RTS

时间: 06:17 (12:17 UTC)

预报

该预报发布于7小时和5分钟前的05:12 UTC
预报有效从27日的 06点(UTC)到 28日的 06点(UTC)
风速10节,风向北转东北,有时为20节阵风
能見度: 9.7公里
散云层高于2000英尺
阴天层高于5000英尺
从 27日的 1800点(UTC)
风速10节,风向北转西北,有时为20节阵风
能見度: 9.7公里
多云层高于2000英尺
多云层高于5000英尺
短暂存在
从 27日的 21点(UTC)到 28日的 01点(UTC)
能見度: 8.0公里
多云层高于1500英尺, 积雨云.
从 28日的 0400点(UTC)
风速10节,风向北转西北
能見度: 9.7公里
多云层高于1500英尺
阴天层高于5000英尺

TAF: MMCM 270512Z 2706/2806 03010G20KT 6SM HZ SCT020 OVC050 FM271800 33010G20KT 6SM HZ BKN020 BKN050 TEMPO 2721/2801 5SM RA BKN015CB FM280400 33010KT 6SM HZ BKN015 OVC050

超过4000个机场的气象观测和天气预报(METAR&TAF报告)。

可查询的气象台以黄色和红色小点在地图上表示。

将鼠标移到小点上方,可查看气象台名称。

然后点击查看天气观测和预报。

如需切换地图:点击带黑十字的绿色按钮放大地图;点击带横线的绿色按钮缩小地图;或者点击绿色箭头查看邻近地区的地图。


METAR-TAF: